Time;durP1;ratioP1;P1;durP2;ratioP2;P2;SDS_P1;SDS_P2;PMS_P1;PMS_P2;Temp;Humidity;BMP_temperature;BMP_pressure;BME280_temperature;BME280_humidity;BME280_pressure;Samples;Min_cycle;Max_cycle;Signal;HPM_P1;HPM_P2
2023/05/29 00:00:18;;;;;;;;;;;;;;;19.35;67.93;96782.99;599623;236;68995;-61
2023/05/29 00:02:45;;;;;;;;;;;;;;;19.35;67.92;96782.99;599593;236;62689;-61
2023/05/29 00:05:13;;;;;;;;;;;;;;;19.35;67.95;96777.66;599593;236;68748;-61
2023/05/29 00:07:41;;;;;;;;;;;;;;;19.34;67.93;96768.84;599663;236;68855;-61
2023/05/29 00:10:10;;;;;;;;;;;;;;;19.34;67.96;96781.38;599612;236;65171;-61
2023/05/29 00:12:38;;;;;;;;;;;;;;;19.34;67.93;96771.52;599634;236;68840;-62
2023/05/29 00:15:06;;;;;;;;;;;;;;;19.34;67.93;96776.05;599589;236;68721;-62
2023/05/29 00:17:34;;;;;;;;;;;;;;;19.34;67.93;96782.17;599625;236;65129;-62
2023/05/29 00:20:05;;;;;;;;;;;;;;;19.34;67.94;96784.04;599627;236;66081;-62
2023/05/29 00:22:31;;;;;;;;;;;;;;;19.34;67.96;96782.17;599586;236;66642;-62
2023/05/29 00:24:59;;;;;;;;;;;;;;;19.35;67.97;96777.66;599591;236;65055;-62
2023/05/29 00:27:26;;;;;;;;;;;;;;;19.35;67.96;96788.33;599631;236;69024;-62
2023/05/29 00:29:54;;;;;;;;;;;;;;;19.34;67.98;96784.83;599596;236;66639;-62
2023/05/29 00:32:21;;;;;;;;;;;;;;;19.34;67.97;96776.84;599635;236;65056;-62
2023/05/29 00:34:48;;;;;;;;;;;;;;;19.34;67.98;96776.05;599685;236;66373;-62
2023/05/29 00:37:16;;;;;;;;;;;;;;;19.34;67.98;96784.04;599601;236;69227;-62
2023/05/29 00:39:44;;;;;;;;;;;;;;;19.34;67.99;96782.17;599617;236;62751;-62
2023/05/29 00:42:12;;;;;;;;;;;;;;;19.34;67.98;96784.04;599645;236;68616;-62
2023/05/29 00:44:39;;;;;;;;;;;;;;;19.35;67.97;96788.33;599588;236;68905;-62
2023/05/29 00:47:07;;;;;;;;;;;;;;;19.34;68.01;96794.70;599662;236;65842;-62
2023/05/29 00:49:36;;;;;;;;;;;;;;;19.33;67.97;96791.23;599578;236;68764;-62
2023/05/29 00:52:06;;;;;;;;;;;;;;;19.34;68.00;96792.03;599594;236;66696;-62
2023/05/29 00:54:36;;;;;;;;;;;;;;;19.34;68.02;96794.70;599621;236;62992;-62
2023/05/29 00:57:05;;;;;;;;;;;;;;;19.34;68.02;96794.70;599598;236;68863;-62
2023/05/29 00:59:33;;;;;;;;;;;;;;;19.34;68.02;96794.70;599616;236;68801;-62
2023/05/29 01:02:02;;;;;;;;;;;;;;;19.34;68.05;96784.04;599637;236;63051;-62
2023/05/29 01:04:33;;;;;;;;;;;;;;;19.33;68.08;96788.58;599618;236;68743;-61
2023/05/29 01:06:59;;;;;;;;;;;;;;;19.32;68.07;96784.33;599587;236;66158;-61
2023/05/29 01:09:29;;;;;;;;;;;;;;;19.33;68.06;96785.91;599621;236;62657;-61
2023/05/29 01:12:03;;;;;;;;;;;;;;;19.33;68.08;96779.79;599617;236;66355;-61
2023/05/29 01:14:35;;;;;;;;;;;;;;;19.33;68.06;96785.12;599664;236;69037;-61
2023/05/29 01:17:13;;;;;;;;;;;;;;;19.33;68.06;96785.12;599637;236;65001;-60
2023/05/29 01:19:59;;;;;;;;;;;;;;;19.32;68.07;96784.33;599526;236;68780;-62
2023/05/29 01:22:35;;;;;;;;;;;;;;;19.32;68.10;96778.99;599616;236;66714;-62
2023/05/29 01:25:04;;;;;;;;;;;;;;;19.33;68.13;96774.45;599642;236;62766;-62
2023/05/29 01:27:32;;;;;;;;;;;;;;;19.32;68.13;96778.99;599625;236;68913;-62
2023/05/29 01:30:00;;;;;;;;;;;;;;;19.31;68.13;96777.37;599690;236;66531;-62
2023/05/29 01:32:30;;;;;;;;;;;;;;;19.32;68.09;96781.66;599632;236;63826;-62
2023/05/29 01:34:57;;;;;;;;;;;;;;;19.32;68.10;96778.20;599643;236;68407;-62
2023/05/29 01:37:27;;;;;;;;;;;;;;;19.32;68.11;96772.87;599617;236;68755;-62
2023/05/29 01:39:56;;;;;;;;;;;;;;;19.32;68.11;96770.20;599612;236;65115;-61
2023/05/29 01:42:27;;;;;;;;;;;;;;;19.32;68.14;96762.21;599638;236;69394;-61
2023/05/29 01:44:55;;;;;;;;;;;;;;;19.32;68.14;96767.54;599656;236;68681;-61
2023/05/29 01:47:23;;;;;;;;;;;;;;;19.32;68.09;96765.67;599637;236;65101;-62
2023/05/29 01:49:52;;;;;;;;;;;;;;;19.30;68.17;96765.92;599667;236;67386;-62
2023/05/29 01:52:19;;;;;;;;;;;;;;;19.33;68.17;96769.13;599616;236;68725;-62
2023/05/29 01:54:47;;;;;;;;;;;;;;;19.32;68.18;96767.54;599641;236;63048;-62
2023/05/29 01:57:15;;;;;;;;;;;;;;;19.32;68.18;96762.21;599714;236;68545;-62
2023/05/29 01:59:42;;;;;;;;;;;;;;;19.33;68.15;96769.13;599580;236;66626;-62
2023/05/29 02:02:12;;;;;;;;;;;;;;;19.32;68.16;96767.54;599677;236;65027;-62
2023/05/29 02:04:39;;;;;;;;;;;;;;;19.32;68.17;96763.00;599633;236;66637;-62
2023/05/29 02:07:07;;;;;;;;;;;;;;;19.32;68.17;96763.00;599627;236;66712;-62
2023/05/29 02:09:36;;;;;;;;;;;;;;;19.31;68.19;96766.72;599687;236;65906;-62
2023/05/29 02:12:03;;;;;;;;;;;;;;;19.31;68.19;96769.38;599618;236;68839;-61
2023/05/29 02:14:31;;;;;;;;;;;;;;;19.31;68.13;96764.05;599612;236;66648;-61
2023/05/29 02:17:01;;;;;;;;;;;;;;;19.32;68.20;96770.20;599629;236;65037;-62
2023/05/29 02:19:28;;;;;;;;;;;;;;;19.30;68.18;96763.26;599604;236;67491;-61
2023/05/29 02:21:56;;;;;;;;;;;;;;;19.31;68.15;96769.38;599681;236;68472;-62
2023/05/29 02:24:23;;;;;;;;;;;;;;;19.31;68.13;96766.72;599634;236;65229;-61
2023/05/29 02:26:51;;;;;;;;;;;;;;;19.31;68.18;96772.05;599594;236;66610;-62
2023/05/29 02:29:19;;;;;;;;;;;;;;;19.32;68.18;96767.54;599605;236;68895;-62
2023/05/29 02:31:46;;;;;;;;;;;;;;;19.31;68.19;96772.05;599599;236;62752;-61
2023/05/29 02:34:14;;;;;;;;;;;;;;;19.32;68.14;96767.54;599660;236;66402;-61
2023/05/29 02:36:42;;;;;;;;;;;;;;;19.32;68.12;96770.20;599672;236;69185;-62
2023/05/29 02:39:10;;;;;;;;;;;;;;;19.31;68.17;96769.38;599607;236;63724;-61
2023/05/29 02:41:38;;;;;;;;;;;;;;;19.31;68.15;96772.05;599619;236;66637;-63
2023/05/29 02:44:06;;;;;;;;;;;;;;;19.30;68.13;96765.92;599668;236;66137;-63
2023/05/29 02:46:34;;;;;;;;;;;;;;;19.31;68.12;96777.37;599656;236;63634;-64
2023/05/29 02:49:01;;;;;;;;;;;;;;;19.30;68.11;96776.58;599711;236;66072;-64
2023/05/29 02:51:29;;;;;;;;;;;;;;;19.31;68.15;96780.04;599612;236;66253;-63
2023/05/29 02:53:57;;;;;;;;;;;;;;;19.30;68.11;96779.24;599632;236;65067;-63
2023/05/29 02:56:26;;;;;;;;;;;;;;;19.30;68.08;96784.58;599631;236;69285;-63
2023/05/29 02:58:53;;;;;;;;;;;;;;;19.30;68.02;96781.91;599757;236;68699;-63
2023/05/29 03:01:21;;;;;;;;;;;;;;;19.30;68.03;96781.91;600169;236;64902;-63
2023/05/29 03:03:49;;;;;;;;;;;;;;;19.30;68.03;96776.58;600126;236;69045;-63
2023/05/29 03:06:17;;;;;;;;;;;;;;;19.31;68.02;96782.70;600128;236;68572;-63
2023/05/29 03:08:46;;;;;;;;;;;;;;;19.31;68.03;96777.37;600091;236;65121;-63
2023/05/29 03:11:15;;;;;;;;;;;;;;;19.30;68.05;96781.91;600138;236;68595;-63
2023/05/29 03:13:42;;;;;;;;;;;;;;;19.30;68.06;96787.23;600162;236;68515;-63
2023/05/29 03:16:10;;;;;;;;;;;;;;;19.29;68.04;96787.52;600099;236;62534;-63
2023/05/29 03:18:39;;;;;;;;;;;;;;;19.31;68.06;96788.03;600075;236;69475;-64
2023/05/29 03:21:07;;;;;;;;;;;;;;;19.30;68.09;96792.56;600042;236;69736;-63
2023/05/29 03:23:35;;;;;;;;;;;;;;;19.29;68.05;96790.98;600102;236;62507;-63
2023/05/29 03:26:03;;;;;;;;;;;;;;;19.30;68.05;96794.44;600089;236;66729;-63
2023/05/29 03:28:32;;;;;;;;;;;;;;;19.29;68.03;96790.19;600128;236;66465;-63
2023/05/29 03:31:01;;;;;;;;;;;;;;;19.29;68.03;96793.64;600175;236;41522;-63
2023/05/29 03:33:29;;;;;;;;;;;;;;;19.29;68.00;96790.19;600067;236;68767;-63
2023/05/29 03:35:58;;;;;;;;;;;;;;;19.29;67.99;96795.52;600008;236;45423;-63
2023/05/29 03:38:26;;;;;;;;;;;;;;;19.30;67.99;96787.23;600103;236;63763;-63
2023/05/29 03:40:55;;;;;;;;;;;;;;;19.29;68.00;96796.30;600159;236;69592;-63
2023/05/29 03:43:23;;;;;;;;;;;;;;;19.28;67.99;96802.68;600062;236;67566;-63
2023/05/29 03:45:51;;;;;;;;;;;;;;;19.29;67.96;96798.17;600099;236;65856;-63
2023/05/29 03:48:18;;;;;;;;;;;;;;;19.28;67.97;96797.35;600089;236;69587;-63
2023/05/29 03:50:50;;;;;;;;;;;;;;;19.28;68.00;96805.34;600126;236;68621;-63
2023/05/29 03:53:19;;;;;;;;;;;;;;;19.28;67.95;96810.67;600065;236;43653;-63
2023/05/29 03:55:46;;;;;;;;;;;;;;;19.29;67.97;96806.97;600087;236;68755;-63
2023/05/29 03:58:15;;;;;;;;;;;;;;;19.28;67.96;96813.34;600036;236;66632;-63
2023/05/29 04:00:43;;;;;;;;;;;;;;;19.29;67.98;96816.83;600128;236;65044;-63
2023/05/29 04:03:11;;;;;;;;;;;;;;;19.29;68.00;96816.83;600074;236;68561;-63
2023/05/29 04:05:39;;;;;;;;;;;;;;;19.30;68.00;96818.41;600133;236;69645;-63
2023/05/29 04:08:08;;;;;;;;;;;;;;;19.28;67.99;96820.53;600110;236;65241;-63
2023/05/29 04:10:36;;;;;;;;;;;;;;;19.28;68.00;96821.33;600080;236;68765;-63
2023/05/29 04:13:04;;;;;;;;;;;;;;;19.29;68.00;96827.48;600063;236;68912;-63
2023/05/29 04:15:33;;;;;;;;;;;;;;;19.29;67.97;96828.28;600110;236;65226;-63
2023/05/29 04:18:00;;;;;;;;;;;;;;;19.28;67.99;96828.53;600089;236;66555;-63
2023/05/29 04:20:28;;;;;;;;;;;;;;;19.29;67.98;96838.14;600143;236;68787;-63
2023/05/29 04:22:55;;;;;;;;;;;;;;;19.29;68.02;96840.80;600119;236;65079;-63
2023/05/29 04:25:23;;;;;;;;;;;;;;;19.28;68.03;96834.66;600099;236;68707;-63
2023/05/29 04:27:50;;;;;;;;;;;;;;;19.27;68.01;96830.41;600108;236;68882;-63
2023/05/29 04:30:19;;;;;;;;;;;;;;;19.28;68.04;96831.98;600086;236;62620;-63
2023/05/29 04:32:48;;;;;;;;;;;;;;;19.27;67.99;96825.07;600149;236;69517;-63
2023/05/29 04:35:16;;;;;;;;;;;;;;;19.28;67.97;96829.33;600122;236;66866;-63
2023/05/29 04:37:45;;;;;;;;;;;;;;;19.28;67.98;96828.53;599363;236;46277;-63
2023/05/29 04:40:17;;;;;;;;;;;;;;;19.26;67.92;96828.81;600086;236;69080;-63
2023/05/29 04:42:50;;;;;;;;;;;;;;;19.27;67.92;96833.06;600083;236;69037;-63
2023/05/29 04:45:14;;;;;;;;;;;;;;;19.28;67.92;96831.20;599968;236;62482;-63
2023/05/29 04:47:44;;;;;;;;;;;;;;;19.28;67.94;96833.86;600132;236;68781;-65
2023/05/29 04:50:16;;;;;;;;;;;;;;;19.28;67.89;96834.66;600177;236;68357;-63
2023/05/29 04:52:44;;;;;;;;;;;;;;;19.28;67.88;96836.52;600145;236;63001;-62
2023/05/29 04:55:11;;;;;;;;;;;;;;;19.27;67.86;96841.05;600170;236;68778;-62
2023/05/29 04:57:39;;;;;;;;;;;;;;;19.27;67.85;96835.73;600092;236;69093;-62
2023/05/29 05:00:11;;;;;;;;;;;;;;;19.27;67.85;96833.06;600205;236;46770;-63
2023/05/29 05:02:39;;;;;;;;;;;;;;;19.27;67.86;96841.05;600149;236;68539;-62
2023/05/29 05:05:07;;;;;;;;;;;;;;;19.27;67.83;96846.39;600099;236;68749;-62
2023/05/29 05:07:34;;;;;;;;;;;;;;;19.27;67.87;96851.72;600164;236;63014;-62
2023/05/29 05:10:03;;;;;;;;;;;;;;;19.28;67.83;96852.52;600143;236;68771;-62
2023/05/29 05:12:31;;;;;;;;;;;;;;;19.26;67.82;96850.12;600190;236;66219;-61
2023/05/29 05:14:59;;;;;;;;;;;;;;;19.27;67.82;96846.39;600171;236;64826;-64
2023/05/29 05:17:28;;;;;;;;;;;;;;;19.27;67.79;96841.05;600103;236;68460;-62
2023/05/29 05:19:55;;;;;;;;;;;;;;;19.27;67.79;96849.05;600123;236;66372;-62
2023/05/29 05:22:23;;;;;;;;;;;;;;;19.27;67.78;96845.59;600140;236;62936;-64
2023/05/29 05:24:53;;;;;;;;;;;;;;;19.28;67.77;96852.52;600193;236;69805;-62
2023/05/29 05:27:20;;;;;;;;;;;;;;;19.27;67.75;96854.38;600164;236;68954;-64
2023/05/29 05:29:48;;;;;;;;;;;;;;;19.27;67.76;96862.38;600148;236;65057;-62
2023/05/29 05:32:15;;;;;;;;;;;;;;;19.26;67.78;96860.78;600157;236;67509;-64
2023/05/29 05:34:43;;;;;;;;;;;;;;;19.27;67.78;96865.03;600103;236;68584;-63
2023/05/29 05:37:11;;;;;;;;;;;;;;;19.27;67.77;96867.70;600140;235;66049;-63
2023/05/29 05:39:39;;;;;;;;;;;;;;;19.26;67.75;96863.45;595407;236;69262;-63
2023/05/29 05:42:07;;;;;;;;;;;;;;;19.27;67.78;96865.03;600227;236;69514;-63
2023/05/29 05:44:48;;;;;;;;;;;;;;;19.27;67.80;96865.03;599842;236;45017;-63
2023/05/29 05:47:16;;;;;;;;;;;;;;;19.26;67.76;96868.77;600154;236;68894;-63
2023/05/29 05:49:43;;;;;;;;;;;;;;;19.26;67.74;96867.95;600120;236;69474;-63
2023/05/29 05:52:11;;;;;;;;;;;;;;;19.26;67.75;96876.77;600147;236;65219;-63
2023/05/29 05:54:39;;;;;;;;;;;;;;;19.27;67.74;96872.23;600139;236;68628;-63
2023/05/29 05:57:07;;;;;;;;;;;;;;;19.27;67.75;96872.23;600056;236;68752;-63
2023/05/29 05:59:36;;;;;;;;;;;;;;;19.27;67.75;96870.37;599786;236;65467;-63
2023/05/29 06:02:04;;;;;;;;;;;;;;;19.27;67.75;96869.57;599621;236;69457;-63
2023/05/29 06:04:31;;;;;;;;;;;;;;;19.26;67.74;96868.77;599546;236;68557;-63
2023/05/29 06:06:59;;;;;;;;;;;;;;;19.27;67.82;96866.91;599665;236;65161;-63
2023/05/29 06:09:27;;;;;;;;;;;;;;;19.27;68.50;96865.03;599609;236;68907;-62
2023/05/29 06:11:56;;;;;;;;;;;;;;;19.24;67.81;96864.77;599597;236;69448;-63
2023/05/29 06:14:24;;;;;;;;;;;;;;;19.24;68.18;96870.89;599589;236;65812;-63
2023/05/29 06:16:54;;;;;;;;;;;;;;;19.26;68.34;96870.61;598910;236;68895;-63
2023/05/29 06:19:22;;;;;;;;;;;;;;;19.27;68.28;96872.23;599555;236;66653;-63
2023/05/29 06:21:58;;;;;;;;;;;;;;;19.28;68.40;96857.84;599511;236;43492;-63
2023/05/29 06:24:27;;;;;;;;;;;;;;;19.27;68.41;96857.05;598087;236;69442;-67
2023/05/29 06:26:56;;;;;;;;;;;;;;;19.28;68.39;96857.84;602429;235;46987;-63
2023/05/29 06:29:24;;;;;;;;;;;;;;;19.33;68.34;96863.19;603417;235;63750;-63
2023/05/29 06:31:51;;;;;;;;;;;;;;;19.34;68.40;96862.11;603312;235;68784;-63
2023/05/29 06:34:19;;;;;;;;;;;;;;;19.36;68.17;96862.65;603369;235;69243;-63
2023/05/29 06:36:47;;;;;;;;;;;;;;;19.37;68.17;96861.61;603350;235;63665;-63
2023/05/29 06:39:15;;;;;;;;;;;;;;;19.38;68.14;96865.06;603260;235;69046;-64
2023/05/29 06:41:43;;;;;;;;;;;;;;;19.40;68.12;96865.61;603298;235;68522;-63
2023/05/29 06:44:14;;;;;;;;;;;;;;;19.41;68.07;96864.53;603256;235;42478;-64
2023/05/29 06:46:42;;;;;;;;;;;;;;;19.42;67.98;96861.59;601415;235;68860;-64
2023/05/29 06:49:10;;;;;;;;;;;;;;;19.43;67.97;96865.08;600451;235;66659;-64
2023/05/29 06:51:38;;;;;;;;;;;;;;;19.43;67.97;96859.75;600430;235;65626;-63
2023/05/29 06:54:07;;;;;;;;;;;;;;;19.43;67.94;96855.22;597839;235;49811;-66
2023/05/29 06:56:35;;;;;;;;;;;;;;;19.45;67.92;96857.59;600318;235;66228;-64
2023/05/29 06:59:03;;;;;;;;;;;;;;;19.45;67.76;96855.76;599609;235;65035;-63
2023/05/29 07:01:31;;;;;;;;;;;;;;;19.47;67.72;96855.48;598637;237;65745;-63
2023/05/29 07:04:03;;;;;;;;;;;;;;;19.47;67.82;96852.81;598146;236;49520;-63
2023/05/29 07:06:31;;;;;;;;;;;;;;;19.47;67.77;96855.48;598616;237;62903;-64
2023/05/29 07:08:59;;;;;;;;;;;;;;;19.48;67.75;96860.55;598646;237;66296;-63
2023/05/29 07:11:26;;;;;;;;;;;;;;;19.49;67.64;96848.81;598680;237;66962;-63
2023/05/29 07:13:55;;;;;;;;;;;;;;;19.49;67.61;96853.35;598657;237;65087;-63
2023/05/29 07:16:23;;;;;;;;;;;;;;;19.50;67.61;96854.94;598572;237;66093;-63
2023/05/29 07:18:52;;;;;;;;;;;;;;;19.50;67.60;96860.27;598641;236;45702;-63
2023/05/29 07:21:20;;;;;;;;;;;;;;;19.51;67.61;96857.36;598611;237;65268;-63
2023/05/29 07:23:47;;;;;;;;;;;;;;;19.52;67.62;96858.16;598598;237;69509;-63
2023/05/29 07:26:15;;;;;;;;;;;;;;;19.51;67.62;96862.69;593789;235;69037;-63
2023/05/29 07:28:43;;;;;;;;;;;;;;;19.52;67.65;96863.48;602504;235;62696;-63
2023/05/29 07:31:11;;;;;;;;;;;;;;;19.53;67.64;96859.74;600227;235;69144;-64
2023/05/29 07:33:41;;;;;;;;;;;;;;;19.52;67.61;96866.95;598631;237;68598;-63
2023/05/29 07:36:08;;;;;;;;;;;;;;;19.53;67.67;96854.41;598599;237;65020;-64
2023/05/29 07:38:36;;;;;;;;;;;;;;;19.55;67.66;96867.48;598653;237;66623;-64
2023/05/29 07:41:04;;;;;;;;;;;;;;;19.53;67.81;96859.74;598661;237;67337;-64
2023/05/29 07:43:36;;;;;;;;;;;;;;;19.50;68.18;96860.27;598551;237;46504;-63
2023/05/29 07:46:05;;;;;;;;;;;;;;;19.48;68.21;96859.77;598592;237;46345;-63
2023/05/29 07:48:32;;;;;;;;;;;;;;;19.48;68.28;96862.42;598608;237;68809;-65
2023/05/29 07:51:01;;;;;;;;;;;;;;;19.47;68.35;96856.27;598613;237;64548;-64
2023/05/29 07:53:30;;;;;;;;;;;;;;;19.46;68.34;96859.22;598740;237;47380;-62
2023/05/29 07:55:58;;;;;;;;;;;;;;;19.45;68.32;96861.09;598612;237;68588;-64
2023/05/29 07:58:25;;;;;;;;;;;;;;;19.45;68.32;96860.27;598431;237;65271;-64
2023/05/29 08:00:53;;;;;;;;;;;;;;;19.44;68.32;96856.80;596136;236;69574;-63
2023/05/29 08:03:21;;;;;;;;;;;;;;;19.45;68.22;96855.76;595943;236;69312;-62
2023/05/29 08:05:53;;;;;;;;;;;;;;;19.44;68.21;96864.80;595246;236;46362;-63
2023/05/29 08:08:21;;;;;;;;;;;;;;;19.44;68.32;96856.80;596055;236;69358;-63
2023/05/29 08:10:49;;;;;;;;;;;;;;;19.44;68.46;96859.47;596033;236;68673;-63
2023/05/29 08:13:17;;;;;;;;;;;;;;;19.43;68.75;96857.09;596012;236;63725;-62
2023/05/29 08:15:45;;;;;;;;;;;;;;;19.44;68.16;96856.01;596036;236;69436;-63
2023/05/29 08:18:13;;;;;;;;;;;;;;;19.44;68.35;96853.34;595924;235;66351;-63
2023/05/29 08:20:40;;;;;;;;;;;;;;;19.44;68.57;96856.80;596057;236;63033;-63
2023/05/29 08:23:08;;;;;;;;;;;;;;;19.44;68.53;96856.01;596064;236;66606;-63
2023/05/29 08:25:35;;;;;;;;;;;;;;;19.43;68.49;96860.55;595953;236;66638;-63
2023/05/29 08:28:03;;;;;;;;;;;;;;;19.42;68.45;96858.13;595991;236;65077;-62
2023/05/29 08:30:30;;;;;;;;;;;;;;;19.42;68.48;96869.59;591411;236;68863;-62
2023/05/29 08:32:58;;;;;;;;;;;;;;;19.43;68.48;96867.75;596105;236;68492;-63
2023/05/29 08:35:25;;;;;;;;;;;;;;;19.43;68.48;96873.08;595955;236;65128;-62
2023/05/29 08:37:53;;;;;;;;;;;;;;;19.41;68.47;96872.53;596004;236;68836;-63
2023/05/29 08:40:20;;;;;;;;;;;;;;;19.42;68.48;96874.91;595930;236;69011;-63
2023/05/29 08:42:49;;;;;;;;;;;;;;;19.42;68.40;96879.45;596035;236;65056;-63
2023/05/29 08:45:18;;;;;;;;;;;;;;;19.42;68.42;96884.78;596038;236;68863;-63
2023/05/29 08:47:47;;;;;;;;;;;;;;;19.42;68.41;96885.58;595906;236;66669;-63
2023/05/29 08:50:15;;;;;;;;;;;;;;;19.42;68.37;96892.77;596062;236;65030;-63
2023/05/29 08:52:44;;;;;;;;;;;;;;;19.42;68.40;96890.91;596069;236;68601;-65
2023/05/29 08:55:11;;;;;;;;;;;;;;;19.41;68.50;96894.64;596014;236;68726;-66
2023/05/29 08:57:39;;;;;;;;;;;;;;;19.43;68.59;96897.06;596091;236;63358;-63
2023/05/29 09:00:12;;;;;;;;;;;;;;;19.42;68.61;96900.77;598046;236;68493;-63
2023/05/29 09:02:40;;;;;;;;;;;;;;;19.43;68.66;96908.52;598611;237;68771;-65
2023/05/29 09:05:09;;;;;;;;;;;;;;;19.42;68.61;96906.89;598648;237;65167;-63
2023/05/29 09:07:40;;;;;;;;;;;;;;;19.42;68.67;96914.09;598656;237;66897;-63
2023/05/29 09:10:09;;;;;;;;;;;;;;;19.45;68.30;96910.91;598631;237;67718;-63
2023/05/29 09:12:36;;;;;;;;;;;;;;;19.45;68.12;96910.91;598663;237;65043;-63
2023/05/29 09:15:06;;;;;;;;;;;;;;;19.44;68.77;96909.31;598516;237;66526;-62
2023/05/29 09:17:33;;;;;;;;;;;;;;;19.44;69.55;96910.11;598285;236;66737;-62
2023/05/29 09:20:03;;;;;;;;;;;;;;;19.44;70.15;96906.64;598556;237;65103;-62
2023/05/29 09:22:30;;;;;;;;;;;;;;;19.43;70.15;96902.39;598562;237;68984;-62
2023/05/29 09:24:59;;;;;;;;;;;;;;;19.42;70.10;96900.77;598603;237;68751;-62
2023/05/29 09:27:26;;;;;;;;;;;;;;;19.42;70.16;96903.44;598616;237;65069;-62
2023/05/29 09:29:54;;;;;;;;;;;;;;;19.42;70.08;96903.44;598529;237;66397;-62
2023/05/29 09:32:22;;;;;;;;;;;;;;;19.42;70.10;96898.11;598661;237;68740;-62
2023/05/29 09:34:51;;;;;;;;;;;;;;;19.42;70.16;96895.44;598654;237;65129;-62
2023/05/29 09:37:22;;;;;;;;;;;;;;;19.41;70.12;96894.64;598540;237;68804;-63
2023/05/29 09:39:48;;;;;;;;;;;;;;;19.42;70.14;96895.44;598571;237;68730;-63
2023/05/29 09:42:16;;;;;;;;;;;;;;;19.46;69.41;96891.99;598677;237;62945;-63
2023/05/29 09:44:46;;;;;;;;;;;;;;;19.47;69.20;96892.79;598635;237;68784;-62
2023/05/29 09:47:18;;;;;;;;;;;;;;;19.45;69.00;96894.91;596955;237;66371;-63
2023/05/29 09:49:49;;;;;;;;;;;;;;;19.43;69.45;96895.19;596663;237;62947;-62
2023/05/29 09:52:18;;;;;;;;;;;;;;;19.43;69.86;96895.19;597484;237;68873;-63
2023/05/29 09:54:46;;;;;;;;;;;;;;;19.43;69.98;96902.39;598594;236;69089;-63
2023/05/29 09:57:19;;;;;;;;;;;;;;;19.43;70.02;96902.39;598608;237;62964;-62
2023/05/29 09:59:51;;;;;;;;;;;;;;;19.43;69.94;96892.52;596578;236;66628;-62
2023/05/29 10:02:16;;;;;;;;;;;;;;;19.42;69.89;96893.57;595963;236;68712;-64
2023/05/29 10:04:44;;;;;;;;;;;;;;;19.42;69.56;96890.11;596020;236;63012;-62
2023/05/29 10:07:13;;;;;;;;;;;;;;;19.42;69.50;96885.58;596074;236;68815;-61
2023/05/29 10:09:43;;;;;;;;;;;;;;;19.44;69.98;96885.33;593735;237;66758;-63
2023/05/29 10:12:12;;;;;;;;;;;;;;;19.43;69.83;96883.73;593538;237;65051;-62
2023/05/29 10:14:41;;;;;;;;;;;;;;;19.42;69.79;96874.13;593502;236;68592;-63
2023/05/29 10:17:10;;;;;;;;;;;;;;;19.41;69.79;96881.32;593449;237;66573;-63
2023/05/29 10:19:38;;;;;;;;;;;;;;;19.42;69.80;96879.45;593435;237;65050;-62
2023/05/29 10:22:06;;;;;;;;;;;;;;;19.42;69.74;96879.45;593595;237;69035;-63
2023/05/29 10:24:35;;;;;;;;;;;;;;;19.42;69.73;96882.11;593596;237;68710;-62
2023/05/29 10:27:05;;;;;;;;;;;;;;;19.42;69.64;96880.24;593479;237;65053;-62
2023/05/29 10:29:34;;;;;;;;;;;;;;;19.42;69.64;96874.91;593494;237;66655;-62
2023/05/29 10:32:15;;;;;;;;;;;;;;;19.42;69.59;96876.78;593436;238;68533;-62
2023/05/29 10:34:43;;;;;;;;;;;;;;;19.42;69.59;96880.24;593022;236;64927;-62
2023/05/29 10:37:16;;;;;;;;;;;;;;;19.42;69.54;96874.13;593451;237;67355;-62
2023/05/29 10:39:43;;;;;;;;;;;;;;;19.42;69.52;96874.91;586298;238;66565;-62
2023/05/29 10:42:29;;;;;;;;;;;;;;;19.42;69.58;96864.25;593473;237;64924;-62
2023/05/29 10:44:56;;;;;;;;;;;;;;;19.42;69.55;96869.59;593424;237;66785;-61
2023/05/29 10:47:24;;;;;;;;;;;;;;;19.42;69.50;96866.13;593426;237;67030;-65
2023/05/29 10:49:52;;;;;;;;;;;;;;;19.42;69.44;96866.13;593544;237;63051;-63
2023/05/29 10:52:20;;;;;;;;;;;;;;;19.43;69.44;96865.08;593481;237;68880;-60
2023/05/29 10:54:52;;;;;;;;;;;;;;;19.42;69.44;96858.13;593378;236;68711;-63
2023/05/29 10:57:22;;;;;;;;;;;;;;;19.42;69.37;96852.80;593585;237;65371;-64
2023/05/29 10:59:51;;;;;;;;;;;;;;;19.43;69.45;96854.42;595190;236;68790;-63
2023/05/29 11:02:20;;;;;;;;;;;;;;;19.43;69.48;96855.22;595763;237;65905;-62
2023/05/29 11:04:50;;;;;;;;;;;;;;;19.44;69.49;96856.01;596118;237;65052;-62
2023/05/29 11:07:34;;;;;;;;;;;;;;;19.44;69.52;96851.47;595538;237;68463;-62
2023/05/29 11:10:06;;;;;;;;;;;;;;;19.45;69.54;96850.42;596023;237;68794;-62
2023/05/29 11:12:35;;;;;;;;;;;;;;;19.44;69.59;96845.34;594922;237;62899;-64
2023/05/29 11:15:07;;;;;;;;;;;;;;;19.44;69.62;96846.14;596100;237;68361;-63
2023/05/29 11:17:42;;;;;;;;;;;;;;;19.44;69.64;96846.14;596080;237;52978;-63
2023/05/29 11:20:11;;;;;;;;;;;;;;;19.45;69.64;96842.43;596114;237;65684;-63
2023/05/29 11:22:43;;;;;;;;;;;;;;;19.45;69.67;96841.61;595878;237;66409;-62
2023/05/29 11:25:11;;;;;;;;;;;;;;;19.45;69.67;96839.77;596033;237;68636;-62
2023/05/29 11:27:39;;;;;;;;;;;;;;;19.44;69.65;96838.15;596110;237;65010;-62
2023/05/29 11:30:07;;;;;;;;;;;;;;;19.44;69.68;96835.48;596092;237;66361;-63
2023/05/29 11:32:36;;;;;;;;;;;;;;;19.45;69.68;96833.61;595998;237;68782;-64
2023/05/29 11:35:08;;;;;;;;;;;;;;;19.45;69.68;96837.10;595951;237;64746;-63
2023/05/29 11:37:37;;;;;;;;;;;;;;;19.45;69.66;96831.77;595800;237;68837;-64
2023/05/29 11:40:08;;;;;;;;;;;;;;;19.46;69.65;96835.23;595950;237;66392;-63
2023/05/29 11:42:44;;;;;;;;;;;;;;;19.46;69.63;96835.23;595972;237;62994;-63
2023/05/29 11:45:14;;;;;;;;;;;;;;;19.47;69.62;96836.82;595913;237;67856;-63
2023/05/29 11:48:01;;;;;;;;;;;;;;;19.47;69.65;96834.16;596078;237;66565;-64
2023/05/29 11:50:30;;;;;;;;;;;;;;;19.46;69.72;96833.36;595852;235;65061;-64
2023/05/29 11:52:58;;;;;;;;;;;;;;;19.47;69.75;96834.16;596097;237;66471;-64
2023/05/29 11:55:26;;;;;;;;;;;;;;;19.46;69.77;96828.03;596035;237;66777;-62
2023/05/29 11:57:58;;;;;;;;;;;;;;;19.47;69.78;96828.83;595893;237;62849;-62
2023/05/29 12:00:26;;;;;;;;;;;;;;;19.47;69.77;96829.62;596021;236;67454;-62
2023/05/29 12:02:53;;;;;;;;;;;;;;;19.46;69.79;96814.70;596067;237;66588;-63
2023/05/29 12:05:21;;;;;;;;;;;;;;;19.47;69.83;96818.16;595995;236;64855;-63
2023/05/29 12:07:49;;;;;;;;;;;;;;;19.47;69.81;96810.97;596018;237;66674;-62
2023/05/29 12:10:18;;;;;;;;;;;;;;;19.47;69.76;96802.17;596031;237;66798;-63
2023/05/29 12:12:50;;;;;;;;;;;;;;;19.48;69.83;96799.26;595980;237;65225;-61
2023/05/29 12:15:19;;;;;;;;;;;;;;;19.47;69.75;96804.84;596004;238;48564;-61
2023/05/29 12:17:47;;;;;;;;;;;;;;;19.49;69.74;96797.39;596016;237;66439;-64
2023/05/29 12:20:15;;;;;;;;;;;;;;;19.49;69.78;96794.72;595952;237;65060;-62
2023/05/29 12:22:43;;;;;;;;;;;;;;;19.48;69.79;96790.47;596016;237;68839;-63
2023/05/29 12:25:15;;;;;;;;;;;;;;;19.49;69.80;96790.19;595970;238;69074;-65
2023/05/29 12:27:43;;;;;;;;;;;;;;;19.49;69.85;96786.72;596054;237;63099;-63
2023/05/29 12:30:11;;;;;;;;;;;;;;;19.49;69.95;96784.06;596089;238;68800;-62
2023/05/29 12:32:40;;;;;;;;;;;;;;;19.49;69.78;96792.05;596049;238;68625;-63
2023/05/29 12:35:12;;;;;;;;;;;;;;;19.50;69.67;96796.31;595993;237;65123;-62
2023/05/29 12:37:44;;;;;;;;;;;;;;;19.50;69.81;96801.64;596091;237;68812;-62
2023/05/29 12:40:16;;;;;;;;;;;;;;;19.50;69.85;96802.44;595997;236;68710;-64
2023/05/29 12:42:44;;;;;;;;;;;;;;;19.50;69.86;96796.31;596071;238;63107;-64
2023/05/29 12:45:12;;;;;;;;;;;;;;;19.51;69.81;96797.92;596067;237;68577;-64
2023/05/29 12:47:41;;;;;;;;;;;;;;;19.50;69.84;96793.64;595986;238;66325;-64
2023/05/29 12:50:27;;;;;;;;;;;;;;;19.51;69.88;96797.92;595906;237;62939;-64
2023/05/29 12:53:02;;;;;;;;;;;;;;;19.51;69.85;96792.59;596014;238;68984;-65
2023/05/29 12:55:30;;;;;;;;;;;;;;;19.50;69.81;96785.64;596039;238;68691;-63